Time;durP1;ratioP1;P1;durP2;ratioP2;P2;SDS_P1;SDS_P2;PMS_P1;PMS_P2;Temp;Humidity;BMP_temperature;BMP_pressure;BME280_temperature;BME280_humidity;BME280_pressure;Samples;Min_cycle;Max_cycle;Signal;HPM_P1;HPM_P2
2021/08/08 00:00:16;;;;;;;1.38;0.55;;;;;;;;;;5015778;28;20056;-80
2021/08/08 00:02:42;;;;;;;1.67;0.70;;;;;;;;;;5016891;28;20022;-80
2021/08/08 00:05:09;;;;;;;1.92;0.70;;;;;;;;;;5017029;28;20049;-80
2021/08/08 00:07:36;;;;;;;1.13;0.57;;;;;;;;;;4999538;28;20068;-80
2021/08/08 00:10:02;;;;;;;1.63;0.45;;;;;;;;;;4999085;28;20544;-80
2021/08/08 00:12:28;;;;;;;2.08;0.60;;;;;;;;;;5016625;28;20065;-80
2021/08/08 00:14:54;;;;;;;0.73;0.47;;;;;;;;;;5015840;28;20053;-80
2021/08/08 00:17:20;;;;;;;1.15;0.50;;;;;;;;;;5015165;28;20101;-80
2021/08/08 00:19:46;;;;;;;1.63;0.90;;;;;;;;;;4997828;28;20461;-78
2021/08/08 00:22:12;;;;;;;2.45;0.63;;;;;;;;;;5015083;28;20041;-78
2021/08/08 00:24:38;;;;;;;4.00;0.65;;;;;;;;;;5015092;28;20434;-78
2021/08/08 00:27:04;;;;;;;7.03;0.80;;;;;;;;;;4997262;28;20056;-77
2021/08/08 00:29:30;;;;;;;1.35;0.70;;;;;;;;;;5014230;28;20038;-80
2021/08/08 00:31:56;;;;;;;2.28;0.68;;;;;;;;;;5016336;28;20509;-80
2021/08/08 00:34:22;;;;;;;1.15;0.57;;;;;;;;;;5016629;28;20029;-80
2021/08/08 00:36:48;;;;;;;1.42;0.70;;;;;;;;;;5015891;28;20038;-80
2021/08/08 00:39:16;;;;;;;1.50;0.70;;;;;;;;;;4997757;28;20030;-78
2021/08/08 00:41:42;;;;;;;1.73;0.60;;;;;;;;;;5015629;28;20034;-79
2021/08/08 00:44:08;;;;;;;1.20;0.60;;;;;;;;;;4998142;28;20407;-78
2021/08/08 00:46:34;;;;;;;1.05;0.63;;;;;;;;;;5019643;28;20048;-79
2021/08/08 00:49:00;;;;;;;1.92;0.40;;;;;;;;;;5021605;28;20077;-79
2021/08/08 00:51:28;;;;;;;2.15;1.08;;;;;;;;;;5006584;28;20422;-79
2021/08/08 00:53:54;;;;;;;1.15;0.60;;;;;;;;;;5019426;28;20061;-78
2021/08/08 00:56:20;;;;;;;3.15;0.63;;;;;;;;;;5018442;28;20116;-79
2021/08/08 00:58:46;;;;;;;1.58;0.52;;;;;;;;;;5000689;28;20029;-78
2021/08/08 01:01:13;;;;;;;1.27;0.55;;;;;;;;;;5015180;28;20018;-79
2021/08/08 01:03:40;;;;;;;3.13;0.63;;;;;;;;;;5014751;28;20402;-78
2021/08/08 01:06:18;;;;;;;0.93;0.43;;;;;;;;;;5013877;28;20037;-78
2021/08/08 01:08:48;;;;;;;1.85;0.65;;;;;;;;;;4996273;28;20038;-78
2021/08/08 01:11:14;;;;;;;1.67;0.57;;;;;;;;;;5013772;28;20029;-78
2021/08/08 01:13:41;;;;;;;1.30;0.50;;;;;;;;;;5013075;28;20072;-78
2021/08/08 01:16:07;;;;;;;1.15;0.40;;;;;;;;;;4996010;28;20044;-77
2021/08/08 01:18:34;;;;;;;0.75;0.50;;;;;;;;;;5013675;28;20030;-78
2021/08/08 01:21:00;;;;;;;2.63;0.43;;;;;;;;;;5013535;28;20558;-78
2021/08/08 01:23:30;;;;;;;1.75;0.60;;;;;;;;;;4995769;28;20132;-79
2021/08/08 01:25:57;;;;;;;2.63;0.55;;;;;;;;;;5013649;28;20025;-78
2021/08/08 01:28:23;;;;;;;1.55;0.47;;;;;;;;;;5013264;28;20076;-79
2021/08/08 01:30:49;;;;;;;1.35;0.60;;;;;;;;;;5013159;28;20033;-79
2021/08/08 01:33:15;;;;;;;2.22;0.70;;;;;;;;;;5013353;28;20502;-79
2021/08/08 01:35:42;;;;;;;4.30;0.30;;;;;;;;;;5013377;28;20034;-78
2021/08/08 01:38:09;;;;;;;1.25;0.60;;;;;;;;;;5013445;28;20068;-78
2021/08/08 01:40:43;;;;;;;4.00;1.73;;;;;;;;;;5012795;28;20514;-78
2021/08/08 01:43:11;;;;;;;2.00;0.50;;;;;;;;;;5013173;28;20025;-77
2021/08/08 01:45:41;;;;;;;3.05;0.40;;;;;;;;;;5013072;28;20030;-77
2021/08/08 01:48:09;;;;;;;1.45;0.55;;;;;;;;;;5013133;28;20026;-76
2021/08/08 01:50:35;;;;;;;2.30;0.47;;;;;;;;;;4995353;28;20108;-79
2021/08/08 01:53:02;;;;;;;2.50;0.47;;;;;;;;;;5013547;28;20030;-78
2021/08/08 01:55:28;;;;;;;2.42;0.65;;;;;;;;;;5013635;28;20495;-78
2021/08/08 01:57:55;;;;;;;1.83;0.50;;;;;;;;;;5014568;28;20026;-77
2021/08/08 02:00:23;;;;;;;1.65;0.57;;;;;;;;;;5013392;28;20133;-78
2021/08/08 02:02:56;;;;;;;2.65;0.52;;;;;;;;;;4995963;28;20109;-78
2021/08/08 02:05:26;;;;;;;2.22;0.70;;;;;;;;;;5012918;28;20080;-79
2021/08/08 02:07:52;;;;;;;2.80;0.57;;;;;;;;;;5012795;28;20430;-79
2021/08/08 02:10:18;;;;;;;0.93;0.57;;;;;;;;;;5012539;28;20096;-79
2021/08/08 02:12:44;;;;;;;1.63;0.50;;;;;;;;;;5012713;28;20406;-79
2021/08/08 02:15:11;;;;;;;2.53;0.70;;;;;;;;;;5012442;28;20482;-78
2021/08/08 02:17:37;;;;;;;1.40;0.50;;;;;;;;;;5012717;28;20034;-78
2021/08/08 02:20:04;;;;;;;2.83;0.73;;;;;;;;;;4994727;28;20065;-78
2021/08/08 02:22:30;;;;;;;1.17;0.68;;;;;;;;;;5012714;28;20102;-78
2021/08/08 02:24:56;;;;;;;1.48;0.50;;;;;;;;;;5012532;28;20537;-78
2021/08/08 02:27:22;;;;;;;2.47;0.50;;;;;;;;;;5012459;28;20089;-78
2021/08/08 02:29:48;;;;;;;0.90;0.60;;;;;;;;;;5012261;28;20038;-78
2021/08/08 02:32:16;;;;;;;3.50;0.70;;;;;;;;;;4995080;28;20038;-79
2021/08/08 02:34:42;;;;;;;2.13;0.68;;;;;;;;;;4994993;28;20030;-78
2021/08/08 02:37:09;;;;;;;2.22;0.80;;;;;;;;;;5012364;28;20033;-78
2021/08/08 02:39:35;;;;;;;1.75;0.63;;;;;;;;;;5011588;28;20026;-77
2021/08/08 02:42:01;;;;;;;2.17;0.50;;;;;;;;;;5013168;28;20037;-77
2021/08/08 02:44:27;;;;;;;3.33;0.60;;;;;;;;;;5013049;28;20038;-78
2021/08/08 02:46:53;;;;;;;2.80;0.70;;;;;;;;;;5012257;28;20034;-77
2021/08/08 02:49:19;;;;;;;2.85;0.70;;;;;;;;;;5011635;28;20033;-77
2021/08/08 02:51:45;;;;;;;3.55;0.70;;;;;;;;;;5012308;28;20397;-78
2021/08/08 02:54:14;;;;;;;2.28;0.60;;;;;;;;;;5012023;28;20030;-78
2021/08/08 02:56:40;;;;;;;1.95;0.65;;;;;;;;;;5012019;28;20022;-78
2021/08/08 02:59:06;;;;;;;1.98;0.73;;;;;;;;;;5011844;28;20036;-78
2021/08/08 03:01:32;;;;;;;2.72;0.88;;;;;;;;;;4994521;28;20116;-78
2021/08/08 03:03:58;;;;;;;3.78;0.80;;;;;;;;;;5011943;28;20048;-78
2021/08/08 03:06:24;;;;;;;3.80;0.82;;;;;;;;;;5012170;28;20540;-77
2021/08/08 03:08:50;;;;;;;1.50;0.60;;;;;;;;;;5012004;28;20033;-77
2021/08/08 03:11:16;;;;;;;2.10;0.75;;;;;;;;;;5012026;28;20426;-78
2021/08/08 03:13:42;;;;;;;0.73;0.50;;;;;;;;;;5011810;28;20056;-78
2021/08/08 03:16:08;;;;;;;1.58;0.60;;;;;;;;;;5011736;28;20030;-78
2021/08/08 03:18:34;;;;;;;6.05;0.77;;;;;;;;;;5011826;28;20080;-79
2021/08/08 03:21:01;;;;;;;4.88;1.15;;;;;;;;;;5011640;28;20510;-78
2021/08/08 03:23:27;;;;;;;2.47;0.60;;;;;;;;;;5011916;28;20430;-78
2021/08/08 03:25:54;;;;;;;3.72;0.90;;;;;;;;;;4994135;28;20057;-78
2021/08/08 03:28:20;;;;;;;1.95;0.70;;;;;;;;;;5011899;28;20022;-78
2021/08/08 03:30:46;;;;;;;4.18;0.80;;;;;;;;;;5011435;28;20113;-78
2021/08/08 03:33:12;;;;;;;2.78;0.70;;;;;;;;;;5011717;28;20101;-77
2021/08/08 03:35:38;;;;;;;1.67;0.55;;;;;;;;;;5011755;28;20033;-76
2021/08/08 03:38:04;;;;;;;2.58;0.52;;;;;;;;;;5011296;28;20041;-77
2021/08/08 03:40:31;;;;;;;2.17;0.70;;;;;;;;;;4993737;28;20041;-76
2021/08/08 03:42:57;;;;;;;4.47;0.93;;;;;;;;;;5011770;28;20025;-77
2021/08/08 03:45:23;;;;;;;4.90;0.70;;;;;;;;;;5011420;28;20077;-78
2021/08/08 03:47:49;;;;;;;3.35;0.50;;;;;;;;;;5011691;28;20075;-77
2021/08/08 03:50:15;;;;;;;4.30;0.60;;;;;;;;;;5011136;28;20430;-76
2021/08/08 03:52:41;;;;;;;3.42;0.60;;;;;;;;;;5014790;28;20026;-77
2021/08/08 03:55:07;;;;;;;2.55;0.77;;;;;;;;;;5015028;28;20034;-77
2021/08/08 03:57:33;;;;;;;2.35;0.60;;;;;;;;;;4997529;28;20024;-78
2021/08/08 03:59:59;;;;;;;4.07;1.25;;;;;;;;;;5014562;28;20592;-78
2021/08/08 04:02:25;;;;;;;1.55;0.60;;;;;;;;;;5014922;28;20156;-77
2021/08/08 04:04:51;;;;;;;2.88;0.60;;;;;;;;;;5014904;28;20032;-77
2021/08/08 04:07:17;;;;;;;3.40;0.77;;;;;;;;;;5015064;28;20113;-77
2021/08/08 04:09:43;;;;;;;4.82;0.80;;;;;;;;;;5014472;28;20466;-77
2021/08/08 04:12:09;;;;;;;3.00;0.93;;;;;;;;;;5014869;28;20026;-77
2021/08/08 04:14:36;;;;;;;2.58;0.50;;;;;;;;;;5014759;28;20022;-76
2021/08/08 04:17:02;;;;;;;4.25;0.90;;;;;;;;;;5014685;28;20554;-78
2021/08/08 04:19:28;;;;;;;3.20;0.70;;;;;;;;;;4996688;28;20030;-78
2021/08/08 04:21:54;;;;;;;4.03;0.70;;;;;;;;;;5014619;28;20096;-77
2021/08/08 04:24:20;;;;;;;2.60;0.60;;;;;;;;;;5014526;28;20026;-77
2021/08/08 04:26:46;;;;;;;2.72;0.50;;;;;;;;;;5014599;28;20042;-78
2021/08/08 04:29:12;;;;;;;2.78;0.70;;;;;;;;;;5014272;28;20034;-78
2021/08/08 04:31:38;;;;;;;1.00;0.45;;;;;;;;;;5014460;28;20545;-77
2021/08/08 04:34:04;;;;;;;2.50;0.50;;;;;;;;;;5014370;28;20157;-78
2021/08/08 04:36:30;;;;;;;2.60;0.50;;;;;;;;;;5014941;28;20092;-79
2021/08/08 04:38:56;;;;;;;1.83;0.70;;;;;;;;;;5015935;28;20394;-79
2021/08/08 04:41:22;;;;;;;2.45;0.68;;;;;;;;;;5016360;28;20057;-78
2021/08/08 04:43:48;;;;;;;0.90;0.45;;;;;;;;;;5015092;28;20449;-79
2021/08/08 04:46:14;;;;;;;6.18;0.60;;;;;;;;;;5014767;28;20483;-77
2021/08/08 04:48:40;;;;;;;1.98;0.50;;;;;;;;;;5014347;28;20038;-80
2021/08/08 04:51:06;;;;;;;2.70;0.70;;;;;;;;;;5014545;28;20109;-76
2021/08/08 04:53:32;;;;;;;3.10;0.80;;;;;;;;;;5014295;28;20022;-78
2021/08/08 04:55:58;;;;;;;2.30;0.60;;;;;;;;;;5013958;28;20069;-79
2021/08/08 04:58:24;;;;;;;1.38;0.40;;;;;;;;;;4997063;28;20376;-77
2021/08/08 05:00:50;;;;;;;2.85;0.55;;;;;;;;;;5013630;28;20486;-77
2021/08/08 05:03:16;;;;;;;1.60;0.60;;;;;;;;;;5013233;28;20032;-77
2021/08/08 05:05:42;;;;;;;3.63;0.82;;;;;;;;;;5013936;28;20394;-78
2021/08/08 05:08:08;;;;;;;2.85;0.65;;;;;;;;;;5013772;28;20076;-77
2021/08/08 05:10:34;;;;;;;2.25;0.55;;;;;;;;;;5013423;28;20467;-77
2021/08/08 05:13:00;;;;;;;1.65;0.50;;;;;;;;;;4996095;28;20038;-77
2021/08/08 05:15:26;;;;;;;3.45;0.70;;;;;;;;;;5012659;28;20109;-77
2021/08/08 05:17:52;;;;;;;1.52;0.43;;;;;;;;;;5014058;28;20091;-79
2021/08/08 05:20:18;;;;;;;3.85;0.77;;;;;;;;;;5013452;28;20519;-78
2021/08/08 05:22:44;;;;;;;2.83;0.60;;;;;;;;;;5014056;28;20137;-77
2021/08/08 05:25:11;;;;;;;3.17;0.63;;;;;;;;;;5013427;28;20117;-77
2021/08/08 05:27:37;;;;;;;2.25;0.70;;;;;;;;;;4994994;28;20077;-79
2021/08/08 05:30:05;;;;;;;2.13;0.70;;;;;;;;;;4993984;28;20023;-77
2021/08/08 05:32:31;;;;;;;4.20;0.57;;;;;;;;;;4976217;28;20037;-77
2021/08/08 05:34:57;;;;;;;5.93;0.85;;;;;;;;;;4994144;28;20030;-79
2021/08/08 05:37:23;;;;;;;7.18;1.00;;;;;;;;;;4994020;28;20590;-79
2021/08/08 05:39:49;;;;;;;3.63;0.80;;;;;;;;;;4993500;28;20712;-78
2021/08/08 05:42:19;;;;;;;1.58;0.60;;;;;;;;;;4993853;28;20030;-79
2021/08/08 05:44:45;;;;;;;2.28;0.77;;;;;;;;;;5008670;28;20098;-79
2021/08/08 05:47:11;;;;;;;3.92;0.55;;;;;;;;;;5013221;28;20061;-76
2021/08/08 05:49:37;;;;;;;2.78;0.70;;;;;;;;;;5012911;28;20026;-78
2021/08/08 05:52:04;;;;;;;2.25;0.65;;;;;;;;;;5013145;28;20056;-78
2021/08/08 05:54:30;;;;;;;2.17;0.80;;;;;;;;;;5012880;28;20030;-77
2021/08/08 05:56:56;;;;;;;3.03;0.90;;;;;;;;;;5012992;28;20030;-78
2021/08/08 05:59:23;;;;;;;4.28;0.80;;;;;;;;;;5012656;28;20029;-77
2021/08/08 06:01:49;;;;;;;3.97;0.88;;;;;;;;;;5012904;28;20080;-78
2021/08/08 06:04:15;;;;;;;2.03;1.08;;;;;;;;;;5013080;28;20041;-78
2021/08/08 06:06:41;;;;;;;4.15;0.90;;;;;;;;;;5013024;28;20037;-78
2021/08/08 06:09:07;;;;;;;3.13;0.82;;;;;;;;;;5012509;28;20022;-77
2021/08/08 06:11:33;;;;;;;3.25;0.50;;;;;;;;;;5012889;28;20030;-78
2021/08/08 06:13:59;;;;;;;2.08;0.60;;;;;;;;;;5011826;28;20063;-78
2021/08/08 06:16:25;;;;;;;2.20;0.50;;;;;;;;;;5011798;28;20430;-78
2021/08/08 06:18:51;;;;;;;3.30;0.68;;;;;;;;;;5012799;28;20084;-78
2021/08/08 06:21:17;;;;;;;1.52;0.60;;;;;;;;;;5012793;28;20072;-78
2021/08/08 06:23:43;;;;;;;5.50;0.73;;;;;;;;;;5012647;28;20030;-78
2021/08/08 06:26:09;;;;;;;2.17;0.60;;;;;;;;;;5005800;28;20098;-77
2021/08/08 06:28:35;;;;;;;3.13;0.70;;;;;;;;;;4992941;28;20023;-77
2021/08/08 06:31:01;;;;;;;1.60;0.50;;;;;;;;;;4992637;28;20073;-78
2021/08/08 06:33:28;;;;;;;3.85;0.75;;;;;;;;;;4992912;28;20022;-78
2021/08/08 06:35:54;;;;;;;5.60;0.68;;;;;;;;;;4992805;28;20450;-78
2021/08/08 06:38:20;;;;;;;4.35;0.80;;;;;;;;;;4992896;28;20030;-78
2021/08/08 06:40:47;;;;;;;2.38;0.55;;;;;;;;;;4993481;28;20056;-79
2021/08/08 06:43:13;;;;;;;2.65;0.57;;;;;;;;;;4996005;28;20065;-78
2021/08/08 06:45:39;;;;;;;3.80;0.60;;;;;;;;;;5010916;28;20037;-77
2021/08/08 06:48:05;;;;;;;2.00;0.50;;;;;;;;;;5012784;28;20030;-78
2021/08/08 06:50:31;;;;;;;6.80;0.88;;;;;;;;;;5013332;28;20066;-78
2021/08/08 06:52:58;;;;;;;4.22;0.88;;;;;;;;;;5007699;28;20028;-77
2021/08/08 06:55:24;;;;;;;5.80;0.65;;;;;;;;;;5012127;28;20033;-75
2021/08/08 06:57:50;;;;;;;3.42;0.60;;;;;;;;;;5011682;28;20076;-75
2021/08/08 07:00:16;;;;;;;2.75;0.60;;;;;;;;;;5010978;28;20028;-75
2021/08/08 07:02:42;;;;;;;4.68;1.08;;;;;;;;;;5011109;28;20475;-75
2021/08/08 07:05:09;;;;;;;4.85;0.73;;;;;;;;;;5011383;28;20434;-74
2021/08/08 07:07:35;;;;;;;2.00;0.63;;;;;;;;;;5009948;28;20033;-74
2021/08/08 07:10:02;;;;;;;2.30;0.70;;;;;;;;;;5003114;28;20506;-74
2021/08/08 07:12:28;;;;;;;4.22;1.05;;;;;;;;;;5011498;28;20514;-74
2021/08/08 07:14:54;;;;;;;6.22;0.93;;;;;;;;;;5011347;28;20079;-74
2021/08/08 07:17:20;;;;;;;4.40;0.98;;;;;;;;;;5011200;28;20076;-75
2021/08/08 07:19:46;;;;;;;3.95;0.80;;;;;;;;;;5007161;28;20494;-74
2021/08/08 07:22:12;;;;;;;4.20;1.05;;;;;;;;;;5011031;28;20026;-74
2021/08/08 07:24:38;;;;;;;5.95;1.10;;;;;;;;;;5011427;28;20026;-74
2021/08/08 07:27:04;;;;;;;2.05;0.63;;;;;;;;;;5013769;28;20025;-77
2021/08/08 07:29:30;;;;;;;3.10;0.80;;;;;;;;;;5014834;28;20030;-74
2021/08/08 07:31:56;;;;;;;3.25;0.65;;;;;;;;;;5014951;28;20030;-76
2021/08/08 07:34:22;;;;;;;2.40;0.70;;;;;;;;;;5015071;28;20026;-76
2021/08/08 07:36:48;;;;;;;2.53;0.85;;;;;;;;;;5015088;28;20072;-76
2021/08/08 07:39:14;;;;;;;2.40;0.65;;;;;;;;;;5014303;28;20030;-78
2021/08/08 07:41:41;;;;;;;3.53;0.90;;;;;;;;;;5013702;28;20104;-75
2021/08/08 07:44:07;;;;;;;7.97;0.90;;;;;;;;;;5015325;28;20041;-76
2021/08/08 07:46:33;;;;;;;1.90;0.75;;;;;;;;;;5014495;28;20034;-75
2021/08/08 07:48:59;;;;;;;4.72;1.00;;;;;;;;;;5016038;28;20033;-77
2021/08/08 07:51:25;;;;;;;5.22;0.88;;;;;;;;;;5011043;28;20482;-78
2021/08/08 07:53:51;;;;;;;5.93;0.98;;;;;;;;;;5014378;28;20018;-82
2021/08/08 07:56:17;;;;;;;4.78;1.05;;;;;;;;;;5004050;28;20141;-76
2021/08/08 07:58:43;;;;;;;6.47;1.20;;;;;;;;;;5018857;28;20354;-78
2021/08/08 08:01:09;;;;;;;7.95;1.20;;;;;;;;;;5012909;28;20041;-77
2021/08/08 08:03:35;;;;;;;5.03;1.05;;;;;;;;;;5011625;28;20085;-78
2021/08/08 08:06:01;;;;;;;4.95;1.23;;;;;;;;;;5011473;28;20030;-77
2021/08/08 08:08:27;;;;;;;6.18;1.42;;;;;;;;;;5011203;28;20383;-78
2021/08/08 08:10:53;;;;;;;5.93;0.90;;;;;;;;;;5012208;28;20044;-79
2021/08/08 08:13:19;;;;;;;3.75;0.90;;;;;;;;;;5013347;28;20109;-81
2021/08/08 08:15:45;;;;;;;3.20;1.40;;;;;;;;;;5013270;28;20030;-79
2021/08/08 08:18:13;;;;;;;9.52;1.92;;;;;;;;;;5013373;28;20075;-75
2021/08/08 08:20:39;;;;;;;5.35;0.90;;;;;;;;;;5011351;28;20372;-78
2021/08/08 08:23:05;;;;;;;5.05;1.15;;;;;;;;;;5014500;28;20014;-77
2021/08/08 08:25:33;;;;;;;4.90;1.48;;;;;;;;;;5011741;28;20037;-74
2021/08/08 08:27:59;;;;;;;5.05;1.10;;;;;;;;;;5009562;28;20036;-76
2021/08/08 08:30:25;;;;;;;6.80;2.20;;;;;;;;;;5008689;28;20042;-74
2021/08/08 08:32:51;;;;;;;5.00;0.95;;;;;;;;;;4995412;28;20514;-78
2021/08/08 08:35:17;;;;;;;5.32;1.60;;;;;;;;;;4992324;28;20018;-78
2021/08/08 08:37:43;;;;;;;4.80;0.95;;;;;;;;;;5012012;28;20026;-79
2021/08/08 08:40:09;;;;;;;6.97;1.00;;;;;;;;;;4996996;28;20061;-78
2021/08/08 08:42:36;;;;;;;5.78;1.35;;;;;;;;;;5016050;28;20026;-78
2021/08/08 08:45:02;;;;;;;3.42;0.85;;;;;;;;;;5015644;28;20116;-78
2021/08/08 08:47:30;;;;;;;4.25;1.00;;;;;;;;;;5015846;28;20034;-78
2021/08/08 08:49:57;;;;;;;3.55;1.25;;;;;;;;;;5014690;28;20030;-79
2021/08/08 08:52:24;;;;;;;4.90;1.05;;;;;;;;;;5015743;28;20028;-80
2021/08/08 08:54:50;;;;;;;4.32;1.20;;;;;;;;;;5016645;28;20395;-78
2021/08/08 08:57:16;;;;;;;4.93;1.20;;;;;;;;;;5016512;28;20026;-78
2021/08/08 08:59:44;;;;;;;2.88;0.98;;;;;;;;;;5015674;28;20085;-78
2021/08/08 09:02:11;;;;;;;4.90;1.05;;;;;;;;;;5016451;28;20395;-78
2021/08/08 09:04:37;;;;;;;9.32;1.45;;;;;;;;;;5016225;28;20033;-78
2021/08/08 09:07:04;;;;;;;2.92;1.00;;;;;;;;;;5015803;28;20395;-78
2021/08/08 09:09:30;;;;;;;3.08;1.08;;;;;;;;;;5015907;28;20038;-79
2021/08/08 09:11:56;;;;;;;3.53;1.33;;;;;;;;;;5012229;28;20032;-76
2021/08/08 09:14:23;;;;;;;4.30;1.30;;;;;;;;;;5012138;28;20289;-79
2021/08/08 09:16:50;;;;;;;5.32;1.00;;;;;;;;;;5016096;28;20022;-78
2021/08/08 09:19:17;;;;;;;5.05;1.50;;;;;;;;;;5013908;28;20022;-77
2021/08/08 09:21:44;;;;;;;3.53;1.00;;;;;;;;;;5014423;28;20056;-79
2021/08/08 09:24:10;;;;;;;6.60;1.17;;;;;;;;;;5016066;28;20032;-78
2021/08/08 09:26:37;;;;;;;4.95;1.08;;;;;;;;;;4997465;28;20025;-76
2021/08/08 09:29:13;;;;;;;5.35;1.35;;;;;;;;;;5012280;28;20048;-75
2021/08/08 09:31:47;;;;;;;4.50;1.10;;;;;;;;;;5012968;28;20026;-76
2021/08/08 09:34:22;;;;;;;6.70;1.30;;;;;;;;;;5015810;28;20033;-79
2021/08/08 09:36:49;;;;;;;5.55;1.10;;;;;;;;;;5016168;28;20026;-78
2021/08/08 09:39:25;;;;;;;4.60;1.02;;;;;;;;;;5015927;28;20364;-79
2021/08/08 09:41:51;;;;;;;4.53;1.10;;;;;;;;;;5016002;28;20116;-76
2021/08/08 09:44:17;;;;;;;10.10;1.75;;;;;;;;;;5013021;28;20049;-76
2021/08/08 09:46:43;;;;;;;5.45;1.00;;;;;;;;;;5012461;28;20107;-76
2021/08/08 09:49:13;;;;;;;4.47;1.10;;;;;;;;;;4995513;28;20021;-79
2021/08/08 09:51:49;;;;;;;5.57;1.25;;;;;;;;;;5016514;28;20034;-79
2021/08/08 09:54:15;;;;;;;5.78;1.58;;;;;;;;;;5013056;28;20169;-79
2021/08/08 09:56:41;;;;;;;5.72;1.27;;;;;;;;;;5010916;28;20030;-76
2021/08/08 09:59:07;;;;;;;3.78;1.00;;;;;;;;;;5012330;28;20580;-77
2021/08/08 10:01:37;;;;;;;3.25;1.30;;;;;;;;;;5012671;28;20049;-77
2021/08/08 10:04:03;;;;;;;3.90;0.95;;;;;;;;;;5012644;28;20048;-76
2021/08/08 10:06:29;;;;;;;4.20;1.17;;;;;;;;;;5012433;28;20099;-77
2021/08/08 10:08:56;;;;;;;5.88;1.25;;;;;;;;;;5011954;28;20469;-77
2021/08/08 10:11:22;;;;;;;4.35;0.88;;;;;;;;;;5012557;28;20029;-78
2021/08/08 10:13:52;;;;;;;3.53;1.33;;;;;;;;;;5012867;28;20534;-77
2021/08/08 10:16:19;;;;;;;5.53;1.20;;;;;;;;;;5013151;28;20073;-77
2021/08/08 10:18:48;;;;;;;3.40;1.38;;;;;;;;;;5013375;28;20053;-77
2021/08/08 10:21:15;;;;;;;4.18;1.20;;;;;;;;;;5012688;28;20057;-77
2021/08/08 10:23:42;;;;;;;5.18;1.52;;;;;;;;;;5012378;28;20435;-77
2021/08/08 10:26:08;;;;;;;5.45;1.40;;;;;;;;;;5012478;28;20030;-77
2021/08/08 10:28:34;;;;;;;3.63;1.02;;;;;;;;;;5014543;28;20495;-79
2021/08/08 10:31:01;;;;;;;6.63;1.17;;;;;;;;;;5014309;28;20026;-78
2021/08/08 10:33:27;;;;;;;3.75;1.33;;;;;;;;;;5012162;28;20613;-76
2021/08/08 10:35:54;;;;;;;5.20;1.38;;;;;;;;;;5015420;28;20030;-79
2021/08/08 10:38:20;;;;;;;3.25;1.35;;;;;;;;;;5016384;28;20508;-79
2021/08/08 10:40:47;;;;;;;5.13;1.30;;;;;;;;;;5015085;28;20021;-79
2021/08/08 10:43:27;;;;;;;6.55;1.48;;;;;;;;;;5016914;28;20041;-78
2021/08/08 10:46:04;;;;;;;5.20;1.50;;;;;;;;;;5008309;28;20065;-78
2021/08/08 10:48:34;;;;;;;6.78;1.58;;;;;;;;;;5017637;28;20033;-81
2021/08/08 10:51:00;;;;;;;5.00;1.60;;;;;;;;;;5018539;28;20041;-80
2021/08/08 10:53:31;;;;;;;7.38;1.63;;;;;;;;;;4999332;28;20084;-81
2021/08/08 10:56:03;;;;;;;6.07;1.80;;;;;;;;;;5022792;28;20041;-81
2021/08/08 10:58:33;;;;;;;4.63;1.30;;;;;;;;;;5028131;28;20049;-79
2021/08/08 11:00:59;;;;;;;4.10;1.35;;;;;;;;;;5026317;28;20041;-82
2021/08/08 11:03:25;;;;;;;4.50;1.60;;;;;;;;;;5019306;28;20034;-82
2021/08/08 11:05:51;;;;;;;2.72;1.15;;;;;;;;;;5018294;28;20030;-81
2021/08/08 11:08:17;;;;;;;3.72;1.02;;;;;;;;;;5000423;28;20068;-81
2021/08/08 11:10:44;;;;;;;3.75;1.35;;;;;;;;;;5017832;28;20037;-79
2021/08/08 11:13:21;;;;;;;4.85;1.25;;;;;;;;;;5019623;28;20133;-82
2021/08/08 11:15:47;;;;;;;5.00;1.30;;;;;;;;;;5017091;28;20025;-80
2021/08/08 11:18:14;;;;;;;5.53;1.30;;;;;;;;;;5016988;28;20026;-78
2021/08/08 11:20:40;;;;;;;5.00;1.05;;;;;;;;;;5015073;28;20033;-80
2021/08/08 11:23:06;;;;;;;2.72;1.23;;;;;;;;;;5015262;28;20370;-80
2021/08/08 11:25:37;;;;;;;2.83;1.27;;;;;;;;;;4995810;28;20030;-80
2021/08/08 11:28:03;;;;;;;5.75;1.05;;;;;;;;;;5006673;28;20051;-79
2021/08/08 11:30:37;;;;;;;3.45;1.20;;;;;;;;;;5012096;28;20025;-77
2021/08/08 11:33:03;;;;;;;3.92;1.40;;;;;;;;;;5011499;28;20069;-79
2021/08/08 11:35:29;;;;;;;6.13;1.30;;;;;;;;;;5012455;28;20026;-79
2021/08/08 11:37:56;;;;;;;3.25;1.20;;;;;;;;;;4996804;28;20026;-79
2021/08/08 11:40:23;;;;;;;6.57;1.30;;;;;;;;;;5010077;28;20026;-79
2021/08/08 11:42:54;;;;;;;8.43;1.38;;;;;;;;;;5016690;28;20030;-78
2021/08/08 11:45:31;;;;;;;4.13;1.30;;;;;;;;;;5020746;28;20014;-78
2021/08/08 11:47:57;;;;;;;7.38;1.98;;;;;;;;;;5022684;28;20090;-81
2021/08/08 11:50:28;;;;;;;7.60;2.05;;;;;;;;;;5018012;28;20030;-80
2021/08/08 11:52:58;;;;;;;6.15;2.38;;;;;;;;;;5014204;28;20026;-80
2021/08/08 11:55:24;;;;;;;6.55;3.00;;;;;;;;;;5016376;28;20040;-78
2021/08/08 11:57:50;;;;;;;5.43;2.03;;;;;;;;;;5017310;28;20486;-79
2021/08/08 12:00:16;;;;;;;3.65;1.75;;;;;;;;;;5015414;28;20022;-80
2021/08/08 12:02:42;;;;;;;3.20;1.20;;;;;;;;;;5016450;28;20418;-80
2021/08/08 12:05:08;;;;;;;4.20;1.80;;;;;;;;;;5016406;28;20046;-79
2021/08/08 12:07:34;;;;;;;4.55;1.02;;;;;;;;;;5013540;28;20058;-80
2021/08/08 12:10:02;;;;;;;3.53;1.20;;;;;;;;;;5020116;28;20084;-80
2021/08/08 12:12:37;;;;;;;3.90;1.05;;;;;;;;;;5012409;28;20113;-78
2021/08/08 12:15:04;;;;;;;4.82;0.93;;;;;;;;;;5016585;28;20044;-81
2021/08/08 12:17:30;;;;;;;3.22;0.95;;;;;;;;;;5010889;28;20030;-81
2021/08/08 12:20:00;;;;;;;2.25;0.77;;;;;;;;;;5014737;28;20042;-80
2021/08/08 12:22:31;;;;;;;3.53;1.00;;;;;;;;;;5017238;28;20022;-81
2021/08/08 12:25:20;;;;;;;2.10;0.88;;;;;;;;;;4999038;28;20053;-80
2021/08/08 12:27:46;;;;;;;2.15;0.82;;;;;;;;;;5015161;28;20030;-82
2021/08/08 12:30:14;;;;;;;1.80;0.85;;;;;;;;;;5011649;28;20021;-81
2021/08/08 12:32:41;;;;;;;1.88;0.70;;;;;;;;;;5015533;28;20041;-80
2021/08/08 12:35:07;;;;;;;3.00;0.90;;;;;;;;;;5015952;28;20028;-80
2021/08/08 12:37:33;;;;;;;3.28;1.00;;;;;;;;;;5016104;28;20022;-80
2021/08/08 12:40:08;;;;;;;2.40;0.90;;;;;;;;;;5014968;28;20042;-80
2021/08/08 12:42:34;;;;;;;3.25;0.90;;;;;;;;;;5016286;28;20022;-80
2021/08/08 12:45:00;;;;;;;2.90;0.77;;;;;;;;;;4998093;28;20141;-80
2021/08/08 12:47:31;;;;;;;5.25;1.05;;;;;;;;;;5015242;28;20414;-81
2021/08/08 12:49:57;;;;;;;2.97;0.73;;;;;;;;;;4994688;28;20034;-82
2021/08/08 12:52:23;;;;;;;2.97;0.88;;;;;;;;;;5015648;28;20394;-81
2021/08/08 12:54:50;;;;;;;3.78;1.10;;;22.70;99.90;;;;;;5015368;28;20096;-81
2021/08/08 12:57:15;;;;;;;6.57;1.13;;;26.50;98.20;;;;;;5015271;28;20037;-81
2021/08/08 12:59:41;;;;;;;2.90;0.98;;;26.20;98.40;;;;;;5015402;28;20026;-81
2021/08/08 13:02:07;;;;;;;2.67;0.90;;;26.40;98.00;;;;;;5014453;28;20049;-81
2021/08/08 13:04:32;;;;;;;3.22;0.90;;;26.00;97.00;;;;;;5014650;28;20053;-80
2021/08/08 13:06:58;;;;;;;4.05;0.90;;;26.00;97.50;;;;;;5015037;28;20053;-81
2021/08/08 13:09:24;;;;;;;3.20;0.85;;;26.00;96.30;;;;;;5013984;28;20097;-81
2021/08/08 13:11:50;;;;;;;3.60;1.10;;;26.10;97.20;;;;;;5015170;28;20113;-81
2021/08/08 13:14:15;;;;;;;2.92;0.80;;;26.60;97.10;;;;;;5014975;28;20026;-81
2021/08/08 13:16:41;;;;;;;2.28;0.98;;;27.30;96.40;;;;;;5014916;28;20032;-81
2021/08/08 13:19:06;;;;;;;2.85;0.90;;;27.40;93.40;;;;;;5014384;28;20561;-82
2021/08/08 13:21:34;;;;;;;3.42;1.00;;;27.20;92.60;;;;;;5014776;28;20018;-81
2021/08/08 13:24:00;;;;;;;4.05;1.02;;;27.00;93.10;;;;;;5014694;28;20026;-81
2021/08/08 13:26:26;;;;;;;2.03;0.90;;;27.50;93.80;;;;;;5014742;28;20045;-81
2021/08/08 13:28:51;;;;;;;2.60;0.90;;;26.00;90.50;;;;;;4997469;28;20040;-80
2021/08/08 13:31:17;;;;;;;5.60;1.02;;;27.50;91.20;;;;;;4997587;28;20038;-81
2021/08/08 13:33:43;;;;;;;3.03;0.85;;;26.60;90.60;;;;;;5029668;22;20053;-77
2021/08/08 13:36:09;;;;;;;2.20;0.70;;;25.10;92.70;;;;;;5017097;28;20120;-78
2021/08/08 13:38:34;;;;;;;4.80;1.10;;;24.00;93.60;;;;;;5016189;28;20033;-79
2021/08/08 13:41:03;;;;;;;2.72;0.70;;;23.00;96.00;;;;;;4999177;28;20053;-81
2021/08/08 13:43:28;;;;;;;2.58;1.00;;;22.30;99.70;;;;;;5012784;28;20057;-78
2021/08/08 13:45:54;;;;;;;7.07;1.75;;;21.60;99.90;;;;;;4989267;28;20327;-81
2021/08/08 13:48:20;;;;;;;4.78;1.70;;;;;;;;;;4997968;28;20035;-80
2021/08/08 13:50:46;;;;;;;10.10;2.03;;;;;;;;;;4992917;28;20034;-79
2021/08/08 13:53:12;;;;;;;6.88;1.77;;;;;;;;;;4997634;28;20057;-81
2021/08/08 13:55:38;;;;;;;7.18;3.20;;;;;;;;;;4979850;28;20483;-81
2021/08/08 13:58:04;;;;;;;8.57;1.75;;;;;;;;;;4996549;28;20034;-80
2021/08/08 14:00:30;;;;;;;5.05;1.60;;;;;;;;;;4967056;28;20026;-80
2021/08/08 14:02:56;;;;;;;5.25;1.60;;;;;;;;;;4995679;28;20380;-78
2021/08/08 14:05:22;;;;;;;3.83;1.27;;;;;;;;;;4985817;28;20038;-81
2021/08/08 14:07:48;;;;;;;3.03;0.90;;;;;;;;;;4985822;28;20477;-80
2021/08/08 14:10:14;;;;;;;4.97;1.48;;;;;;;;;;4993891;28;20038;-81
2021/08/08 14:12:41;;;;;;;3.88;1.40;;;;;;;;;;4978372;28;20502;-81
2021/08/08 14:15:08;;;;;;;3.40;1.13;;;;;;;;;;4977648;28;20084;-82
2021/08/08 14:17:34;;;;;;;3.90;0.80;;;;;;;;;;4978024;28;20031;-80
2021/08/08 14:20:00;;;;;;;1.95;0.80;;;;;;;;;;4981765;28;20057;-82
2021/08/08 14:22:26;;;;;;;3.75;1.10;;;;;;;;;;4994059;28;20050;-81
2021/08/08 14:24:52;;;;;;;5.07;1.25;;;;;;;;;;4993538;28;20030;-81
2021/08/08 14:27:18;;;;;;;2.30;0.98;;;;;;;;;;4995403;28;20113;-81
2021/08/08 14:29:44;;;;;;;4.93;1.30;;;;;;;;;;4994580;28;20030;-80
2021/08/08 14:32:10;;;;;;;7.82;1.15;;;;;;;;;;4988779;28;20033;-78